Time;durP1;ratioP1;P1;durP2;ratioP2;P2;SDS_P1;SDS_P2;PMS_P1;PMS_P2;Temp;Humidity;BMP_temperature;BMP_pressure;BME280_temperature;BME280_humidity;BME280_pressure;Samples;Min_cycle;Max_cycle;Signal;HPM_P1;HPM_P2
2024/01/29 00:00:16;;;;;;;6.82;3.95;;;5.60;69.30;;;;;;5010857;28;20037;-82
2024/01/29 00:02:44;;;;;;;7.75;4.45;;;5.60;69.40;;;;;;5008176;28;20038;-82
2024/01/29 00:05:09;;;;;;;7.25;3.67;;;5.60;69.50;;;;;;4988942;28;20477;-82
2024/01/29 00:07:35;;;;;;;7.03;4.15;;;5.60;69.60;;;;;;4989155;28;20120;-82
2024/01/29 00:10:00;;;;;;;5.57;3.42;;;5.60;69.60;;;;;;5001699;28;20121;-82
2024/01/29 00:12:26;;;;;;;8.02;4.95;;;5.60;69.70;;;;;;5016100;28;20033;-82
2024/01/29 00:14:52;;;;;;;6.03;3.47;;;5.60;69.70;;;;;;4999433;28;20050;-82
2024/01/29 00:17:18;;;;;;;4.97;3.40;;;5.50;69.70;;;;;;4978519;28;20053;-83
2024/01/29 00:19:43;;;;;;;4.93;3.47;;;5.60;69.80;;;;;;5022889;28;20061;-83
2024/01/29 00:22:09;;;;;;;6.80;3.88;;;5.50;69.80;;;;;;5023246;28;20033;-83
2024/01/29 00:24:34;;;;;;;7.38;3.30;;;5.60;70.00;;;;;;5007281;28;20497;-82
2024/01/29 00:27:00;;;;;;;6.07;4.38;;;5.50;70.00;;;;;;5009086;28;20048;-82
2024/01/29 00:29:25;;;;;;;5.43;3.33;;;5.80;70.30;;;;;;4992847;28;20025;-82
2024/01/29 00:31:54;;;;;;;6.72;3.47;;;5.50;70.20;;;;;;4995938;28;20049;-82
2024/01/29 00:34:20;;;;;;;8.13;3.60;;;5.50;70.20;;;;;;4989271;28;20044;-82
2024/01/29 00:36:45;;;;;;;5.97;4.00;;;5.50;70.20;;;;;;4996977;28;20034;-82
2024/01/29 00:39:11;;;;;;;6.18;3.75;;;5.50;70.30;;;;;;4991647;28;20048;-82
2024/01/29 00:41:37;;;;;;;7.80;4.07;;;5.40;70.30;;;;;;4993235;28;20033;-82
2024/01/29 00:44:02;;;;;;;5.20;3.63;;;5.40;70.40;;;;;;5007319;28;20133;-82
2024/01/29 00:46:28;;;;;;;6.70;3.85;;;5.50;70.60;;;;;;5005876;28;20032;-82
2024/01/29 00:48:54;;;;;;;6.15;3.38;;;5.40;70.70;;;;;;5013247;28;20080;-83
2024/01/29 00:51:19;;;;;;;6.63;3.58;;;5.40;70.80;;;;;;5013863;28;20037;-82
2024/01/29 00:53:45;;;;;;;7.32;3.83;;;5.40;70.80;;;;;;5012022;28;20115;-82
2024/01/29 00:56:10;;;;;;;8.38;3.92;;;5.40;70.80;;;;;;5031456;28;20044;-82
2024/01/29 00:58:36;;;;;;;7.93;4.00;;;5.40;70.90;;;;;;5014962;28;20030;-82
2024/01/29 01:01:02;;;;;;;6.45;3.58;;;5.40;71.00;;;;;;5014455;28;20038;-82
2024/01/29 01:03:27;;;;;;;6.10;3.67;;;5.40;71.10;;;;;;4997558;28;20042;-82
2024/01/29 01:05:53;;;;;;;5.72;3.63;;;5.40;71.20;;;;;;4995430;28;20125;-82
2024/01/29 01:08:18;;;;;;;9.75;4.38;;;5.30;71.10;;;;;;5009446;28;20592;-82
2024/01/29 01:10:44;;;;;;;6.15;4.18;;;5.40;71.30;;;;;;5016709;28;20025;-82
2024/01/29 01:13:10;;;;;;;6.80;3.78;;;5.30;71.20;;;;;;5017011;28;20068;-82
2024/01/29 01:15:35;;;;;;;5.65;3.60;;;5.30;71.40;;;;;;5014861;28;20050;-82
2024/01/29 01:18:03;;;;;;;6.32;3.53;;;5.30;71.50;;;;;;5011607;28;20036;-82
2024/01/29 01:20:29;;;;;;;6.38;3.47;;;6.00;72.40;;;;;;5018061;28;20046;-82
2024/01/29 01:22:55;;;;;;;7.38;4.03;;;5.30;71.70;;;;;;4996692;28;20041;-82
2024/01/29 01:25:20;;;;;;;5.65;3.47;;;5.30;71.80;;;;;;4999435;28;20076;-82
2024/01/29 01:27:46;;;;;;;5.78;3.88;;;5.30;71.90;;;;;;5015549;28;20037;-82
2024/01/29 01:30:12;;;;;;;6.65;3.15;;;5.30;71.90;;;;;;5014982;28;20041;-82
2024/01/29 01:32:37;;;;;;;7.75;3.88;;;5.20;71.90;;;;;;4994848;28;20484;-82
2024/01/29 01:35:03;;;;;;;6.15;3.70;;;5.20;72.00;;;;;;5013875;28;20044;-82
2024/01/29 01:37:29;;;;;;;5.38;3.17;;;5.20;72.20;;;;;;5009366;28;20432;-82
2024/01/29 01:39:54;;;;;;;5.75;3.88;;;5.40;72.40;;;;;;5013459;28;20095;-82
2024/01/29 01:42:21;;;;;;;7.60;4.25;;;5.40;72.50;;;;;;5010044;28;20033;-82
2024/01/29 01:44:47;;;;;;;5.75;3.60;;;5.20;72.40;;;;;;4998629;28;20033;-82
2024/01/29 01:47:12;;;;;;;7.22;3.60;;;5.10;72.40;;;;;;5009896;28;20038;-82
2024/01/29 01:49:39;;;;;;;9.13;4.43;;;5.10;72.50;;;;;;5014884;28;20038;-82
2024/01/29 01:52:06;;;;;;;4.88;3.22;;;5.10;72.50;;;;;;4994120;28;20408;-82
2024/01/29 01:54:32;;;;;;;5.30;3.70;;;5.00;72.50;;;;;;4997301;28;20029;-82
2024/01/29 01:56:59;;;;;;;5.60;3.70;;;5.00;72.50;;;;;;4995096;28;20117;-82
2024/01/29 01:59:25;;;;;;;5.97;3.92;;;5.00;72.50;;;;;;4994164;28;20046;-82
2024/01/29 02:01:52;;;;;;;6.25;3.88;;;5.00;72.60;;;;;;5005757;28;20045;-82
2024/01/29 02:04:18;;;;;;;7.88;4.32;;;5.00;72.60;;;;;;4993253;28;20572;-82
2024/01/29 02:06:45;;;;;;;5.40;3.72;;;5.00;72.60;;;;;;4997393;28;20061;-83
2024/01/29 02:09:11;;;;;;;5.47;3.47;;;4.90;72.60;;;;;;5021849;28;20147;-83
2024/01/29 02:11:37;;;;;;;7.38;3.83;;;4.90;72.70;;;;;;4981823;28;20480;-82
2024/01/29 02:14:03;;;;;;;5.82;3.70;;;4.90;72.80;;;;;;4994959;28;20068;-82
2024/01/29 02:16:28;;;;;;;6.57;4.07;;;4.80;72.80;;;;;;5008253;28;20025;-82
2024/01/29 02:18:54;;;;;;;5.80;3.65;;;4.80;72.90;;;;;;4998262;28;20038;-82
2024/01/29 02:21:19;;;;;;;6.90;4.30;;;4.80;73.00;;;;;;5013632;28;20049;-83
2024/01/29 02:23:45;;;;;;;8.02;4.35;;;4.80;73.10;;;;;;4997169;28;20065;-83
2024/01/29 02:26:12;;;;;;;5.68;3.80;;;4.80;73.20;;;;;;4993439;28;20092;-82
2024/01/29 02:28:38;;;;;;;6.82;4.43;;;4.70;73.20;;;;;;4997665;28;20061;-82
2024/01/29 02:31:04;;;;;;;6.00;4.30;;;4.70;73.20;;;;;;5008235;28;20060;-82
2024/01/29 02:33:30;;;;;;;6.38;4.20;;;4.70;73.30;;;;;;5009131;28;20108;-82
2024/01/29 02:35:56;;;;;;;6.40;4.28;;;4.70;73.80;;;;;;5014162;28;20034;-82
2024/01/29 02:38:21;;;;;;;6.68;3.80;;;4.70;73.60;;;;;;4992838;28;20052;-82
2024/01/29 02:40:47;;;;;;;7.05;4.45;;;4.70;73.70;;;;;;5029282;28;20116;-82
2024/01/29 02:43:13;;;;;;;6.28;3.97;;;4.60;73.80;;;;;;4995638;28;20112;-82
2024/01/29 02:45:39;;;;;;;5.55;4.10;;;4.60;74.00;;;;;;5009383;28;20053;-82
2024/01/29 02:48:05;;;;;;;6.00;4.55;;;4.60;74.20;;;;;;5014170;28;20120;-82
2024/01/29 02:50:31;;;;;;;6.30;4.10;;;4.60;74.30;;;;;;5010331;28;20396;-82
2024/01/29 02:52:58;;;;;;;6.30;3.78;;;4.60;74.40;;;;;;4998727;28;20120;-82
2024/01/29 02:55:23;;;;;;;8.00;4.45;;;4.60;74.60;;;;;;4997410;28;20057;-82
2024/01/29 02:57:49;;;;;;;7.95;4.25;;;4.60;74.80;;;;;;4995578;28;20038;-82
2024/01/29 03:00:15;;;;;;;6.53;4.30;;;4.60;74.90;;;;;;4999244;28;20105;-82
2024/01/29 03:02:40;;;;;;;8.40;4.50;;;4.60;75.00;;;;;;5000820;28;20101;-82
2024/01/29 03:05:07;;;;;;;6.57;4.35;;;4.50;75.00;;;;;;4996854;28;20468;-82
2024/01/29 03:07:33;;;;;;;6.20;4.43;;;4.50;75.10;;;;;;4998132;28;20052;-82
2024/01/29 03:09:58;;;;;;;7.40;4.78;;;4.50;75.10;;;;;;5006966;28;20493;-82
2024/01/29 03:12:24;;;;;;;6.13;4.28;;;4.50;75.10;;;;;;5017828;28;20042;-82
2024/01/29 03:14:50;;;;;;;7.78;4.07;;;4.50;75.30;;;;;;5007245;28;20022;-82
2024/01/29 03:17:16;;;;;;;6.13;4.28;;;4.50;75.40;;;;;;5020909;28;20045;-82
2024/01/29 03:19:41;;;;;;;5.63;4.25;;;4.50;75.50;;;;;;5002826;28;20049;-82
2024/01/29 03:22:07;;;;;;;6.18;4.13;;;4.40;75.50;;;;;;5001800;28;20034;-82
2024/01/29 03:24:32;;;;;;;7.28;4.28;;;4.40;75.50;;;;;;5002948;28;20030;-82
2024/01/29 03:26:58;;;;;;;6.43;4.55;;;4.40;75.60;;;;;;5001864;28;20038;-82
2024/01/29 03:29:24;;;;;;;6.53;4.15;;;4.70;75.70;;;;;;5014455;28;20045;-82
2024/01/29 03:31:49;;;;;;;8.43;4.90;;;4.40;75.60;;;;;;5028271;28;20043;-81
2024/01/29 03:34:15;;;;;;;8.45;4.13;;;4.40;75.60;;;;;;5001489;28;20060;-81
2024/01/29 03:36:43;;;;;;;8.38;4.10;;;4.40;75.70;;;;;;5021936;28;20151;-81
2024/01/29 03:39:12;;;;;;;7.85;4.90;;;4.30;75.70;;;;;;5040970;28;20487;-81
2024/01/29 03:41:37;;;;;;;6.88;5.35;;;4.30;75.70;;;;;;5022191;28;20060;-81
2024/01/29 03:44:03;;;;;;;8.38;4.63;;;4.30;75.70;;;;;;5005643;28;20079;-81
2024/01/29 03:46:29;;;;;;;7.43;4.45;;;4.30;75.80;;;;;;5004265;28;20063;-81
2024/01/29 03:48:54;;;;;;;7.75;4.82;;;4.30;76.10;;;;;;4984110;28;20041;-82
2024/01/29 03:51:20;;;;;;;7.38;4.85;;;4.30;76.20;;;;;;5015018;28;20037;-82
2024/01/29 03:53:46;;;;;;;7.65;4.43;;;4.20;76.30;;;;;;5016428;28;20040;-82
2024/01/29 03:56:11;;;;;;;8.98;4.90;;;4.20;76.50;;;;;;4997112;28;20436;-82
2024/01/29 03:58:37;;;;;;;7.57;4.57;;;4.20;76.60;;;;;;5024902;28;20025;-82
2024/01/29 04:01:03;;;;;;;7.43;4.32;;;4.20;76.70;;;;;;5024579;28;20126;-82
2024/01/29 04:03:28;;;;;;;9.77;4.45;;;4.20;76.80;;;;;;5005417;28;20505;-82
2024/01/29 04:05:54;;;;;;;7.93;5.13;;;4.20;76.90;;;;;;5030127;28;20221;-82
2024/01/29 04:08:21;;;;;;;7.00;4.55;;;4.20;77.00;;;;;;5006835;28;20069;-82
2024/01/29 04:10:50;;;;;;;5.82;4.00;;;4.20;77.00;;;;;;5025532;28;20042;-82
2024/01/29 04:13:15;;;;;;;7.43;4.13;;;4.20;77.20;;;;;;5017825;28;20041;-82
2024/01/29 04:15:41;;;;;;;9.88;4.78;;;4.20;77.30;;;;;;5016839;28;20120;-83
2024/01/29 04:18:06;;;;;;;8.52;4.63;;;4.30;77.50;;;;;;4999378;28;20038;-82
2024/01/29 04:20:32;;;;;;;6.55;4.15;;;4.20;77.40;;;;;;5018175;28;20034;-82
2024/01/29 04:22:57;;;;;;;6.82;4.55;;;4.20;77.40;;;;;;5006477;28;20041;-82
2024/01/29 04:25:24;;;;;;;7.40;4.70;;;4.20;77.40;;;;;;5005640;28;20064;-82
2024/01/29 04:27:51;;;;;;;7.47;4.63;;;4.20;77.40;;;;;;5021720;28;20102;-82
2024/01/29 04:30:16;;;;;;;6.65;4.72;;;4.20;77.50;;;;;;4998448;28;20411;-82
2024/01/29 04:32:42;;;;;;;7.38;4.57;;;4.10;77.50;;;;;;4998912;28;20101;-82
2024/01/29 04:35:08;;;;;;;7.97;4.40;;;4.10;77.50;;;;;;5016093;28;20038;-82
2024/01/29 04:37:33;;;;;;;6.70;4.40;;;4.10;77.60;;;;;;5040869;28;20040;-82
2024/01/29 04:39:59;;;;;;;6.82;4.40;;;4.10;77.70;;;;;;5014034;28;20053;-82
2024/01/29 04:42:24;;;;;;;8.57;5.10;;;4.10;77.70;;;;;;5019322;28;20064;-82
2024/01/29 04:44:50;;;;;;;6.40;4.80;;;4.10;77.80;;;;;;5016471;28;20030;-82
2024/01/29 04:47:16;;;;;;;12.82;5.55;;;4.10;77.80;;;;;;5019479;28;20040;-82
2024/01/29 04:49:41;;;;;;;10.68;5.90;;;4.00;77.90;;;;;;5014614;28;20105;-82
2024/01/29 04:52:07;;;;;;;7.10;4.78;;;4.00;78.00;;;;;;5022743;28;20042;-82
2024/01/29 04:54:32;;;;;;;9.13;5.53;;;4.10;78.20;;;;;;5018494;28;20038;-82
2024/01/29 04:56:58;;;;;;;8.32;5.05;;;4.00;78.30;;;;;;4998373;28;20048;-82
2024/01/29 04:59:24;;;;;;;7.95;4.97;;;4.00;78.40;;;;;;5012957;28;20041;-82
2024/01/29 05:01:49;;;;;;;7.55;5.00;;;4.00;78.50;;;;;;5002258;28;20038;-82
2024/01/29 05:04:15;;;;;;;7.72;4.85;;;4.00;78.60;;;;;;5020932;28;20121;-82
2024/01/29 05:06:40;;;;;;;7.05;5.00;;;4.00;78.60;;;;;;5000648;28;20121;-82
2024/01/29 05:09:09;;;;;;;7.05;5.25;;;4.00;78.70;;;;;;5002655;28;20064;-82
2024/01/29 05:11:37;;;;;;;7.70;4.55;;;4.00;79.20;;;;;;5022749;28;20530;-82
2024/01/29 05:14:03;;;;;;;9.57;5.32;;;4.10;79.00;;;;;;5014118;28;20459;-82
2024/01/29 05:16:29;;;;;;;8.43;5.25;;;4.10;79.10;;;;;;5013655;28;20125;-82
2024/01/29 05:18:55;;;;;;;6.25;4.72;;;4.10;79.10;;;;;;4999812;28;20049;-82
2024/01/29 05:21:20;;;;;;;5.28;4.47;;;4.10;79.20;;;;;;5010754;28;20067;-82
2024/01/29 05:23:46;;;;;;;8.90;4.95;;;4.10;79.30;;;;;;4995651;28;20038;-82
2024/01/29 05:26:11;;;;;;;7.72;5.45;;;4.10;79.30;;;;;;5004851;28;20046;-82
2024/01/29 05:28:37;;;;;;;8.88;5.05;;;4.10;79.30;;;;;;5003855;28;20048;-83
2024/01/29 05:31:03;;;;;;;7.03;4.72;;;4.10;79.30;;;;;;5031396;28;20121;-83
2024/01/29 05:33:28;;;;;;;8.07;4.68;;;4.10;79.40;;;;;;5017333;28;20037;-83
2024/01/29 05:35:55;;;;;;;6.18;4.60;;;4.10;79.50;;;;;;5021261;28;20032;-83
2024/01/29 05:38:21;;;;;;;9.00;4.57;;;4.10;79.50;;;;;;5026636;28;20044;-82
2024/01/29 05:40:46;;;;;;;7.78;4.85;;;4.10;79.60;;;;;;5046580;28;20037;-82
2024/01/29 05:43:12;;;;;;;7.32;5.03;;;4.10;79.70;;;;;;5000379;28;20073;-82
2024/01/29 05:45:38;;;;;;;8.13;5.30;;;4.10;79.70;;;;;;5013350;28;20039;-82
2024/01/29 05:48:07;;;;;;;9.20;4.93;;;4.10;79.70;;;;;;4996272;28;20068;-82
2024/01/29 05:50:32;;;;;;;6.57;5.03;;;4.10;79.80;;;;;;5013869;28;20110;-82
2024/01/29 05:52:58;;;;;;;7.65;5.13;;;4.10;79.80;;;;;;5021642;28;20041;-86
2024/01/29 05:55:23;;;;;;;8.50;5.05;;;4.10;79.90;;;;;;4994381;28;20124;-82
2024/01/29 05:57:49;;;;;;;8.93;5.22;;;4.10;79.90;;;;;;5007729;28;20033;-82
2024/01/29 06:00:15;;;;;;;7.75;5.78;;;4.30;80.10;;;;;;5027287;28;20104;-82
2024/01/29 06:02:47;;;;;;;7.78;5.10;;;4.10;80.20;;;;;;5014504;28;20485;-82
2024/01/29 06:05:13;;;;;;;10.20;6.00;;;4.10;80.30;;;;;;5007260;28;20402;-83
2024/01/29 06:07:40;;;;;;;9.23;5.57;;;4.10;80.40;;;;;;4994404;28;20092;-83
2024/01/29 06:10:09;;;;;;;8.80;6.40;;;4.10;80.60;;;;;;4999293;28;20041;-83
2024/01/29 06:12:35;;;;;;;7.57;4.85;;;4.10;80.70;;;;;;5013995;28;20080;-83
2024/01/29 06:15:01;;;;;;;10.20;6.45;;;4.10;80.70;;;;;;4987413;28;20034;-83
2024/01/29 06:17:28;;;;;;;8.85;5.00;;;4.10;80.80;;;;;;5013404;28;20049;-83
2024/01/29 06:19:53;;;;;;;8.70;5.45;;;4.20;80.90;;;;;;4991326;28;20045;-83
2024/01/29 06:22:19;;;;;;;7.25;5.38;;;4.20;80.90;;;;;;5008258;28;20050;-83
2024/01/29 06:24:44;;;;;;;7.28;5.45;;;4.20;81.00;;;;;;5007016;28;20037;-83
2024/01/29 06:27:10;;;;;;;8.13;5.30;;;4.20;81.00;;;;;;4999688;28;20449;-83
2024/01/29 06:29:35;;;;;;;10.35;5.40;;;4.20;81.00;;;;;;5009240;28;20033;-83
2024/01/29 06:32:01;;;;;;;8.00;5.75;;;4.20;81.10;;;;;;4997023;28;20184;-83
2024/01/29 06:34:27;;;;;;;9.60;5.85;;;4.20;81.10;;;;;;4988656;28;20093;-83
2024/01/29 06:36:55;;;;;;;9.40;5.70;;;4.30;81.20;;;;;;4993370;28;20037;-83
2024/01/29 06:39:24;;;;;;;8.60;5.55;;;4.30;81.20;;;;;;5008666;28;20042;-83
2024/01/29 06:41:50;;;;;;;8.68;6.35;;;4.30;81.30;;;;;;4995267;28;20072;-82
2024/01/29 06:44:16;;;;;;;10.07;6.00;;;4.30;81.30;;;;;;4999132;28;20038;-82
2024/01/29 06:46:41;;;;;;;9.40;5.30;;;4.30;81.30;;;;;;4993451;28;20122;-83
2024/01/29 06:49:07;;;;;;;8.57;5.15;;;4.30;81.30;;;;;;5006696;28;20042;-83
2024/01/29 06:51:32;;;;;;;9.77;5.80;;;4.30;81.30;;;;;;4991245;28;20068;-82
2024/01/29 06:54:00;;;;;;;7.57;5.30;;;4.30;81.40;;;;;;4987140;28;20061;-82
2024/01/29 06:56:27;;;;;;;9.65;5.70;;;4.30;81.40;;;;;;5008483;28;20045;-82
2024/01/29 06:58:53;;;;;;;8.75;5.50;;;4.30;81.50;;;;;;5009779;28;20063;-82
2024/01/29 07:01:21;;;;;;;8.35;5.88;;;4.30;81.60;;;;;;5011315;28;20512;-82
2024/01/29 07:03:47;;;;;;;6.97;4.72;;;4.30;81.70;;;;;;4991830;28;20057;-82
2024/01/29 07:06:12;;;;;;;9.88;7.07;;;4.30;81.70;;;;;;4995134;28;20045;-82
2024/01/29 07:08:38;;;;;;;8.20;5.75;;;4.40;81.80;;;;;;4992156;28;20038;-82
2024/01/29 07:11:03;;;;;;;9.35;5.97;;;4.80;82.10;;;;;;4994920;28;20118;-82
2024/01/29 07:13:29;;;;;;;7.72;5.70;;;4.30;81.80;;;;;;4990901;28;20033;-82
2024/01/29 07:15:55;;;;;;;7.75;5.85;;;4.30;81.90;;;;;;4997418;28;20034;-84
2024/01/29 07:18:21;;;;;;;8.00;5.85;;;4.40;82.00;;;;;;5010536;28;20116;-82
2024/01/29 07:20:49;;;;;;;7.50;5.82;;;4.40;82.00;;;;;;5005971;28;20034;-83
2024/01/29 07:23:15;;;;;;;8.32;5.65;;;4.40;82.10;;;;;;5010669;28;20424;-82
2024/01/29 07:25:41;;;;;;;8.05;5.70;;;4.40;82.10;;;;;;4992050;28;20093;-82
2024/01/29 07:28:06;;;;;;;11.13;5.85;;;4.40;82.20;;;;;;5009177;28;20071;-83
2024/01/29 07:30:33;;;;;;;9.52;5.60;;;4.40;82.20;;;;;;5007344;28;20037;-83
2024/01/29 07:32:59;;;;;;;8.23;5.80;;;4.40;82.20;;;;;;4999796;28;20104;-83
2024/01/29 07:35:25;;;;;;;10.20;6.45;;;4.40;82.20;;;;;;4991302;28;20085;-83
2024/01/29 07:37:52;;;;;;;8.90;5.65;;;4.40;82.40;;;;;;5011638;28;20029;-82
2024/01/29 07:40:19;;;;;;;12.60;6.38;;;4.40;82.40;;;;;;5038865;28;20038;-82
2024/01/29 07:42:45;;;;;;;8.55;5.70;;;4.40;82.50;;;;;;5014853;28;20054;-82
2024/01/29 07:45:11;;;;;;;7.80;5.72;;;4.30;82.60;;;;;;4983440;28;20042;-82
2024/01/29 07:47:37;;;;;;;8.68;6.00;;;4.30;82.60;;;;;;5014265;28;20048;-80
2024/01/29 07:50:02;;;;;;;12.30;6.50;;;4.40;82.80;;;;;;5022853;28;20046;-81
2024/01/29 07:52:28;;;;;;;11.00;6.70;;;4.30;82.80;;;;;;4990527;28;20041;-82
2024/01/29 07:54:54;;;;;;;8.55;5.88;;;4.30;83.10;;;;;;4994600;28;20040;-83
2024/01/29 07:57:19;;;;;;;11.00;6.45;;;4.30;83.10;;;;;;4995060;28;20037;-83
2024/01/29 07:59:48;;;;;;;9.95;6.10;;;4.40;83.30;;;;;;5014365;28;20469;-83
2024/01/29 08:02:13;;;;;;;9.25;6.47;;;4.40;83.40;;;;;;4991516;28;20048;-83
2024/01/29 08:04:39;;;;;;;11.38;6.45;;;4.40;83.50;;;;;;4996840;28;20057;-84
2024/01/29 08:07:05;;;;;;;10.73;7.03;;;4.40;83.60;;;;;;5012030;28;20045;-83
2024/01/29 08:09:30;;;;;;;8.82;7.22;;;4.40;83.60;;;;;;4986288;28;20053;-83
2024/01/29 08:11:56;;;;;;;7.78;6.25;;;4.40;83.80;;;;;;5012467;28;20047;-82
2024/01/29 08:14:22;;;;;;;9.05;6.30;;;4.40;83.90;;;;;;5005696;28;20088;-83
2024/01/29 08:16:48;;;;;;;10.02;7.10;;;4.50;84.00;;;;;;5009519;28;20084;-83
2024/01/29 08:19:13;;;;;;;8.35;6.18;;;4.50;84.10;;;;;;4997459;28;20057;-83
2024/01/29 08:21:39;;;;;;;9.85;6.60;;;4.50;84.30;;;;;;5011382;28;20120;-82
2024/01/29 08:24:05;;;;;;;10.45;6.75;;;4.60;84.50;;;;;;5001547;28;20045;-83
2024/01/29 08:26:31;;;;;;;13.18;6.63;;;4.60;84.60;;;;;;4995941;28;20025;-83
2024/01/29 08:28:57;;;;;;;8.55;6.35;;;4.60;84.70;;;;;;5012696;28;20040;-83
2024/01/29 08:31:23;;;;;;;9.02;6.38;;;4.70;84.80;;;;;;4992798;28;20029;-83
2024/01/29 08:33:49;;;;;;;9.98;6.15;;;4.70;84.70;;;;;;4997959;28;20065;-83
2024/01/29 08:36:15;;;;;;;8.90;6.68;;;4.80;84.80;;;;;;4996441;28;20149;-83
2024/01/29 08:38:42;;;;;;;9.75;6.57;;;4.80;84.80;;;;;;4997819;28;20033;-83
2024/01/29 08:41:08;;;;;;;8.48;6.72;;;4.90;84.90;;;;;;5001784;28;20033;-83
2024/01/29 08:43:34;;;;;;;11.23;6.65;;;4.90;84.90;;;;;;5001830;28;20038;-83
2024/01/29 08:46:00;;;;;;;9.75;6.80;;;5.30;85.10;;;;;;5016994;28;20061;-83
2024/01/29 08:48:25;;;;;;;9.63;6.35;;;5.00;84.80;;;;;;5018542;28;20066;-83
2024/01/29 08:50:51;;;;;;;9.32;5.72;;;5.10;84.80;;;;;;5000320;28;20045;-83
2024/01/29 08:53:17;;;;;;;8.90;6.70;;;5.20;84.70;;;;;;5003146;28;20045;-83
2024/01/29 08:55:42;;;;;;;9.25;6.20;;;5.20;84.60;;;;;;4994294;28;20033;-83
2024/01/29 08:58:08;;;;;;;9.52;6.53;;;5.30;84.50;;;;;;4994025;28;20038;-83
2024/01/29 09:00:33;;;;;;;10.43;6.75;;;5.30;84.40;;;;;;5013524;28;20042;-82
2024/01/29 09:02:59;;;;;;;10.77;6.90;;;5.40;84.40;;;;;;5014060;28;20037;-83
2024/01/29 09:05:25;;;;;;;9.80;7.18;;;5.50;84.40;;;;;;5013562;28;20049;-83
2024/01/29 09:07:51;;;;;;;10.88;6.35;;;5.50;84.30;;;;;;4992258;28;20037;-82
2024/01/29 09:10:17;;;;;;;10.75;7.38;;;5.60;84.20;;;;;;5011392;28;20098;-82
2024/01/29 09:12:43;;;;;;;9.25;6.70;;;5.60;84.00;;;;;;4997020;28;20563;-82
2024/01/29 09:15:09;;;;;;;10.45;7.70;;;5.70;84.00;;;;;;5007514;28;20045;-82
2024/01/29 09:17:35;;;;;;;11.35;7.82;;;5.80;83.90;;;;;;5001333;28;20049;-83
2024/01/29 09:20:06;;;;;;;9.43;6.38;;;5.80;83.90;;;;;;5012995;28;20465;-82
2024/01/29 09:22:32;;;;;;;12.63;8.07;;;5.90;83.90;;;;;;5007905;28;20034;-82
2024/01/29 09:24:57;;;;;;;8.43;6.47;;;6.00;83.80;;;;;;5012101;28;20060;-82
2024/01/29 09:27:23;;;;;;;8.60;6.60;;;6.10;83.60;;;;;;5005495;28;20092;-81
2024/01/29 09:29:48;;;;;;;10.68;7.05;;;6.20;83.50;;;;;;5027903;28;20025;-81
2024/01/29 09:32:14;;;;;;;10.55;7.43;;;6.30;83.20;;;;;;5011478;28;20052;-81
2024/01/29 09:34:40;;;;;;;12.45;7.15;;;6.30;82.90;;;;;;5024253;28;20030;-81
2024/01/29 09:37:05;;;;;;;8.38;6.43;;;6.40;82.80;;;;;;5029673;28;20041;-81
2024/01/29 09:39:31;;;;;;;10.02;7.65;;;6.50;82.60;;;;;;4996417;28;20496;-81
2024/01/29 09:42:03;;;;;;;10.65;7.20;;;7.00;82.60;;;;;;5004104;28;20088;-81
2024/01/29 09:44:35;;;;;;;10.10;7.53;;;6.60;82.10;;;;;;4993004;28;20041;-82
2024/01/29 09:47:01;;;;;;;13.18;8.23;;;6.70;81.90;;;;;;5011612;28;20037;-82
2024/01/29 09:49:27;;;;;;;13.20;8.57;;;6.80;81.70;;;;;;5005910;28;20052;-82
2024/01/29 09:51:54;;;;;;;14.73;9.93;;;6.80;81.40;;;;;;4996270;28;20038;-82
2024/01/29 09:54:20;;;;;;;15.98;9.30;;;7.30;81.50;;;;;;4997320;28;20038;-82
2024/01/29 09:56:45;;;;;;;13.98;9.05;;;6.90;81.10;;;;;;5011754;28;20457;-82
2024/01/29 09:59:11;;;;;;;12.63;8.88;;;7.00;81.00;;;;;;5015333;28;20496;-83
2024/01/29 10:01:37;;;;;;;13.98;9.02;;;7.00;80.90;;;;;;5020550;28;20554;-82
2024/01/29 10:04:04;;;;;;;10.57;7.97;;;7.10;80.80;;;;;;4993121;28;20084;-82
2024/01/29 10:06:29;;;;;;;16.70;10.02;;;7.10;80.60;;;;;;5014347;28;20038;-82
2024/01/29 10:08:57;;;;;;;17.20;10.63;;;7.20;80.50;;;;;;5008907;28;20057;-82
2024/01/29 10:11:23;;;;;;;19.05;11.10;;;7.20;80.50;;;;;;5010427;28;20048;-82
2024/01/29 10:14:00;;;;;;;19.20;12.07;;;7.40;80.60;;;;;;4996470;28;20112;-82
2024/01/29 10:16:30;;;;;;;21.10;12.35;;;7.30;80.40;;;;;;4990418;28;20104;-82
2024/01/29 10:19:00;;;;;;;22.20;13.80;;;7.40;80.50;;;;;;4996261;28;20457;-82
2024/01/29 10:21:26;;;;;;;19.20;12.20;;;7.50;80.50;;;;;;5000306;28;20033;-82
2024/01/29 10:23:56;;;;;;;17.85;12.15;;;7.50;80.50;;;;;;4993702;28;20038;-82
2024/01/29 10:26:22;;;;;;;18.05;11.20;;;7.60;80.50;;;;;;5012677;28;20124;-82
2024/01/29 10:29:00;;;;;;;14.57;10.30;;;7.70;80.60;;;;;;5012774;28;20480;-82
2024/01/29 10:31:26;;;;;;;15.15;9.73;;;7.70;80.40;;;;;;4995112;28;20045;-82
2024/01/29 10:33:52;;;;;;;12.65;8.32;;;7.80;80.30;;;;;;4997534;28;20061;-82
2024/01/29 10:36:18;;;;;;;15.98;8.57;;;7.90;80.30;;;;;;4995459;28;20037;-82
2024/01/29 10:38:46;;;;;;;13.13;8.88;;;7.90;80.20;;;;;;4994108;28;20045;-82
2024/01/29 10:41:16;;;;;;;13.10;9.13;;;8.50;80.50;;;;;;5016825;28;20057;-82
2024/01/29 10:43:46;;;;;;;12.13;9.23;;;8.00;80.00;;;;;;5009361;28;20433;-82
2024/01/29 10:46:16;;;;;;;13.85;9.15;;;8.10;80.00;;;;;;5012759;28;20048;-82
2024/01/29 10:48:43;;;;;;;11.82;8.70;;;8.20;79.90;;;;;;5010374;28;20045;-82
2024/01/29 10:51:12;;;;;;;11.88;9.02;;;8.30;79.80;;;;;;5008359;28;20100;-82
2024/01/29 10:53:39;;;;;;;11.98;8.45;;;8.30;79.70;;;;;;4989434;28;20426;-82
2024/01/29 10:56:06;;;;;;;12.27;9.00;;;8.40;79.80;;;;;;5017035;28;20064;-82
2024/01/29 10:58:32;;;;;;;13.68;9.35;;;8.40;79.60;;;;;;5012824;28;20163;-82
2024/01/29 11:00:59;;;;;;;11.82;9.00;;;8.50;79.60;;;;;;5008849;28;20041;-81
2024/01/29 11:03:26;;;;;;;11.40;8.73;;;8.50;79.50;;;;;;4981639;28;20061;-81
2024/01/29 11:06:20;;;;;;;12.05;9.65;;;8.60;79.40;;;;;;5027965;28;20052;-81
2024/01/29 11:08:49;;;;;;;11.27;8.80;;;8.60;79.30;;;;;;4981065;28;20050;-82
2024/01/29 11:11:15;;;;;;;11.07;8.80;;;8.70;79.30;;;;;;4986898;28;20434;-82
2024/01/29 11:13:42;;;;;;;12.63;9.50;;;8.70;79.20;;;;;;5001844;28;20098;-82
2024/01/29 11:16:07;;;;;;;11.57;8.23;;;8.80;79.10;;;;;;5012822;28;20091;-82
2024/01/29 11:18:34;;;;;;;10.18;8.40;;;8.80;79.10;;;;;;4990716;28;20048;-82
2024/01/29 11:21:00;;;;;;;10.10;8.55;;;8.80;79.00;;;;;;4993169;28;20056;-82
2024/01/29 11:23:28;;;;;;;11.40;8.85;;;8.90;79.00;;;;;;4990064;28;20046;-81
2024/01/29 11:25:57;;;;;;;10.95;8.77;;;8.80;78.90;;;;;;5010068;28;20066;-82
2024/01/29 11:28:27;;;;;;;11.13;9.27;;;8.90;78.80;;;;;;5009167;28;20077;-82
2024/01/29 11:30:53;;;;;;;13.55;8.65;;;8.90;78.70;;;;;;4995685;28;20112;-82
2024/01/29 11:33:19;;;;;;;11.98;8.95;;;9.20;78.90;;;;;;5009611;28;20126;-82
2024/01/29 11:35:45;;;;;;;12.73;8.85;;;9.40;79.10;;;;;;4991476;28;20527;-82
2024/01/29 11:38:13;;;;;;;11.35;8.95;;;9.40;79.10;;;;;;5012026;28;20424;-82
2024/01/29 11:40:42;;;;;;;12.30;8.90;;;8.90;78.80;;;;;;4994182;28;20408;-83
2024/01/29 11:43:14;;;;;;;13.32;8.93;;;8.90;78.80;;;;;;5010708;28;20079;-82
2024/01/29 11:45:40;;;;;;;11.20;9.02;;;8.90;78.90;;;;;;4992489;28;20045;-82
2024/01/29 11:48:13;;;;;;;11.18;8.95;;;8.90;78.90;;;;;;5004615;28;20038;-83
2024/01/29 11:50:40;;;;;;;13.80;9.60;;;9.00;78.80;;;;;;4996310;28;20040;-81
2024/01/29 11:53:10;;;;;;;11.63;9.55;;;8.90;78.80;;;;;;5001813;28;20049;-81
2024/01/29 11:55:36;;;;;;;13.68;9.52;;;9.00;78.90;;;;;;5011797;28;20060;-82
2024/01/29 11:58:02;;;;;;;13.93;9.90;;;9.00;78.90;;;;;;4998015;28;20025;-82
2024/01/29 12:00:28;;;;;;;12.35;9.30;;;9.00;79.00;;;;;;4993518;28;20037;-82
2024/01/29 12:02:54;;;;;;;14.13;9.52;;;9.00;79.00;;;;;;4993475;28;20049;-82
2024/01/29 12:05:20;;;;;;;11.82;9.27;;;9.00;79.20;;;;;;4999295;28;20049;-82
2024/01/29 12:07:48;;;;;;;12.18;9.20;;;9.00;79.20;;;;;;4989310;28;20469;-86
2024/01/29 12:10:16;;;;;;;10.35;9.18;;;9.00;79.30;;;;;;4996870;28;20472;-82
2024/01/29 12:12:41;;;;;;;13.20;9.52;;;9.00;79.30;;;;;;5011440;28;20458;-82
2024/01/29 12:15:10;;;;;;;13.25;9.57;;;9.00;79.40;;;;;;5014248;28;20069;-82
2024/01/29 12:17:40;;;;;;;12.82;9.30;;;9.00;79.40;;;;;;4991407;28;20037;-82
2024/01/29 12:20:06;;;;;;;14.68;10.40;;;9.50;79.80;;;;;;5011486;28;20041;-82
2024/01/29 12:22:32;;;;;;;16.30;11.32;;;9.10;79.70;;;;;;4990160;28;20098;-82
2024/01/29 12:24:59;;;;;;;15.20;11.32;;;9.10;79.70;;;;;;5006041;28;20029;-83
2024/01/29 12:27:25;;;;;;;16.98;10.95;;;9.00;79.80;;;;;;5000024;28;20133;-82
2024/01/29 12:29:52;;;;;;;15.05;10.60;;;9.10;79.90;;;;;;5012653;28;20461;-82
2024/01/29 12:32:20;;;;;;;14.00;10.68;;;9.10;80.00;;;;;;4997056;28;20113;-82
2024/01/29 12:34:47;;;;;;;15.13;10.43;;;9.20;80.20;;;;;;4996289;28;20600;-82
2024/01/29 12:37:22;;;;;;;16.00;10.93;;;9.20;80.20;;;;;;5010547;28;20060;-82
2024/01/29 12:39:54;;;;;;;10.98;9.63;;;9.60;80.40;;;;;;5006258;28;20042;-82
2024/01/29 12:42:21;;;;;;;12.15;9.48;;;9.20;80.40;;;;;;4993271;28;20104;-82
2024/01/29 12:44:48;;;;;;;13.95;9.82;;;9.40;80.70;;;;;;5015699;28;20037;-83
2024/01/29 12:47:21;;;;;;;13.00;10.13;;;9.30;80.70;;;;;;5011075;28;20045;-83